sensor_id;sensor_type;location;lat;lon;timestamp;pressure;altitude;pressure_sealevel;temperature;humidity
46392;BME280;32098;49.448;7.904;2023-03-20T00:00:57;98390.16;;;6.38;83.44
46392;BME280;32098;49.448;7.904;2023-03-20T00:03:24;98381.16;;;6.32;84.99
46392;BME280;32098;49.448;7.904;2023-03-20T00:05:51;98381.22;;;6.45;84.88
46392;BME280;32098;49.448;7.904;2023-03-20T00:08:18;98389.78;;;6.47;84.59
46392;BME280;32098;49.448;7.904;2023-03-20T00:10:45;98389.59;;;6.55;84.40
46392;BME280;32098;49.448;7.904;2023-03-20T00:13:22;98384.31;;;6.62;84.28
46392;BME280;32098;49.448;7.904;2023-03-20T00:15:50;98383.91;;;6.58;83.73
46392;BME280;32098;49.448;7.904;2023-03-20T00:18:19;98387.59;;;6.64;83.88
46392;BME280;32098;49.448;7.904;2023-03-20T00:20:47;98398.00;;;6.65;83.08
46392;BME280;32098;49.448;7.904;2023-03-20T00:23:14;98392.25;;;6.62;83.04
46392;BME280;32098;49.448;7.904;2023-03-20T00:25:43;98390.66;;;6.67;82.92
46392;BME280;32098;49.448;7.904;2023-03-20T00:28:39;98398.78;;;6.59;82.14
46392;BME280;32098;49.448;7.904;2023-03-20T00:31:24;98389.59;;;6.55;82.43
46392;BME280;32098;49.448;7.904;2023-03-20T00:33:53;98392.91;;;6.64;82.61
46392;BME280;32098;49.448;7.904;2023-03-20T00:36:22;98399.22;;;6.69;82.73
46392;BME280;32098;49.448;7.904;2023-03-20T00:38:49;98404.56;;;6.76;83.30
46392;BME280;32098;49.448;7.904;2023-03-20T00:41:25;98398.88;;;6.79;83.44
46392;BME280;32098;49.448;7.904;2023-03-20T00:44:02;98402.31;;;6.80;83.41
46392;BME280;32098;49.448;7.904;2023-03-20T00:46:35;98392.25;;;6.62;83.46
46392;BME280;32098;49.448;7.904;2023-03-20T00:49:04;98404.09;;;6.53;83.33
46392;BME280;32098;49.448;7.904;2023-03-20T00:51:31;98404.69;;;6.42;83.53
46392;BME280;32098;49.448;7.904;2023-03-20T00:53:58;98401.19;;;6.41;83.30
46392;BME280;32098;49.448;7.904;2023-03-20T00:56:31;98402.03;;;6.48;82.98
46392;BME280;32098;49.448;7.904;2023-03-20T00:59:00;98395.44;;;6.31;84.70
46392;BME280;32098;49.448;7.904;2023-03-20T01:01:28;98405.28;;;6.44;85.21
46392;BME280;32098;49.448;7.904;2023-03-20T01:03:57;98403.63;;;6.36;85.98
46392;BME280;32098;49.448;7.904;2023-03-20T01:06:24;98383.13;;;6.17;87.41
46392;BME280;32098;49.448;7.904;2023-03-20T01:08:50;98399.56;;;6.40;87.92
46392;BME280;32098;49.448;7.904;2023-03-20T01:11:20;98396.28;;;6.38;87.53
46392;BME280;32098;49.448;7.904;2023-03-20T01:13:49;98402.41;;;6.39;87.97
46392;BME280;32098;49.448;7.904;2023-03-20T01:16:22;98416.69;;;6.38;87.59
46392;BME280;32098;49.448;7.904;2023-03-20T01:18:50;98416.91;;;6.36;88.06
46392;BME280;32098;49.448;7.904;2023-03-20T01:21:18;98415.47;;;6.40;88.21
46392;BME280;32098;49.448;7.904;2023-03-20T01:23:45;98425.53;;;6.58;87.29
46392;BME280;32098;49.448;7.904;2023-03-20T01:26:20;98424.53;;;6.65;87.94
46392;BME280;32098;49.448;7.904;2023-03-20T01:28:49;98425.59;;;6.78;88.10
46392;BME280;32098;49.448;7.904;2023-03-20T01:31:17;98426.25;;;6.86;87.60
46392;BME280;32098;49.448;7.904;2023-03-20T01:33:44;98429.53;;;7.01;87.57
46392;BME280;32098;49.448;7.904;2023-03-20T01:36:13;98428.31;;;7.04;87.60
46392;BME280;32098;49.448;7.904;2023-03-20T01:38:41;98433.84;;;7.09;86.97
46392;BME280;32098;49.448;7.904;2023-03-20T01:41:14;98436.53;;;7.15;87.29
46392;BME280;32098;49.448;7.904;2023-03-20T01:43:43;98425.50;;;7.18;86.77
46392;BME280;32098;49.448;7.904;2023-03-20T01:46:38;98431.25;;;7.22;86.88
46392;BME280;32098;49.448;7.904;2023-03-20T01:51:46;98429.19;;;7.24;86.22
46392;BME280;32098;49.448;7.904;2023-03-20T01:54:22;98426.13;;;7.27;87.00
46392;BME280;32098;49.448;7.904;2023-03-20T01:57:14;98425.72;;;7.17;87.04
46392;BME280;32098;49.448;7.904;2023-03-20T01:59:47;98414.22;;;7.10;86.67
46392;BME280;32098;49.448;7.904;2023-03-20T02:02:18;98437.34;;;7.16;87.22
46392;BME280;32098;49.448;7.904;2023-03-20T02:04:49;98431.03;;;7.17;87.17
46392;BME280;32098;49.448;7.904;2023-03-20T02:07:19;98434.47;;;7.17;87.61
46392;BME280;32098;49.448;7.904;2023-03-20T02:10:03;98432.84;;;7.23;87.05
46392;BME280;32098;49.448;7.904;2023-03-20T02:12:40;98426.53;;;7.24;87.52
46392;BME280;32098;49.448;7.904;2023-03-20T02:15:10;98431.66;;;7.32;87.09
46392;BME280;32098;49.448;7.904;2023-03-20T02:18:06;98436.53;;;7.35;87.04
46392;BME280;32098;49.448;7.904;2023-03-20T02:20:55;98422.03;;;7.31;86.97
46392;BME280;32098;49.448;7.904;2023-03-20T02:23:51;98439.81;;;7.37;87.13
46392;BME280;32098;49.448;7.904;2023-03-20T02:32:45;98430.44;;;7.41;86.48
46392;BME280;32098;49.448;7.904;2023-03-20T02:41:32;98436.78;;;7.47;86.41
46392;BME280;32098;49.448;7.904;2023-03-20T02:46:51;98442.88;;;7.47;86.71
46392;BME280;32098;49.448;7.904;2023-03-20T02:49:49;98445.13;;;7.50;86.58
46392;BME280;32098;49.448;7.904;2023-03-20T02:52:41;98446.78;;;7.51;86.69
46392;BME280;32098;49.448;7.904;2023-03-20T02:58:29;98450.03;;;7.53;86.68
46392;BME280;32098;49.448;7.904;2023-03-20T03:01:08;98439.41;;;7.53;86.76
46392;BME280;32098;49.448;7.904;2023-03-20T03:03:46;98440.03;;;7.55;87.09
46392;BME280;32098;49.448;7.904;2023-03-20T03:06:21;98433.69;;;7.56;86.55
46392;BME280;32098;49.448;7.904;2023-03-20T03:08:54;98436.97;;;7.58;86.48
46392;BME280;32098;49.448;7.904;2023-03-20T03:11:23;98429.00;;;7.58;86.73
46392;BME280;32098;49.448;7.904;2023-03-20T03:13:53;98421.63;;;7.60;86.74
46392;BME280;32098;49.448;7.904;2023-03-20T03:16:42;98421.00;;;7.58;86.73
46392;BME280;32098;49.448;7.904;2023-03-20T03:19:29;98414.69;;;7.59;86.13
46392;BME280;32098;49.448;7.904;2023-03-20T03:21:57;98414.25;;;7.62;86.62
46392;BME280;32098;49.448;7.904;2023-03-20T03:27:28;98418.34;;;7.58;86.31
46392;BME280;32098;49.448;7.904;2023-03-20T03:30:05;98416.31;;;7.60;86.59
46392;BME280;32098;49.448;7.904;2023-03-20T03:32:34;98413.66;;;7.60;86.69
46392;BME280;32098;49.448;7.904;2023-03-20T03:35:03;98418.34;;;7.65;86.48
46392;BME280;32098;49.448;7.904;2023-03-20T03:37:42;98426.13;;;7.66;86.28
46392;BME280;32098;49.448;7.904;2023-03-20T03:40:29;98427.75;;;7.67;86.56
46392;BME280;32098;49.448;7.904;2023-03-20T03:43:26;98434.72;;;7.68;86.37
46392;BME280;32098;49.448;7.904;2023-03-20T03:46:04;98433.88;;;7.68;86.23
46392;BME280;32098;49.448;7.904;2023-03-20T03:48:37;98434.94;;;7.67;86.50
46392;BME280;32098;49.448;7.904;2023-03-20T03:51:12;98436.97;;;7.71;86.26
46392;BME280;32098;49.448;7.904;2023-03-20T03:53:56;98440.63;;;7.70;85.80
46392;BME280;32098;49.448;7.904;2023-03-20T03:56:26;98439.63;;;7.71;85.83
46392;BME280;32098;49.448;7.904;2023-03-20T03:58:58;98436.97;;;7.71;86.09
46392;BME280;32098;49.448;7.904;2023-03-20T04:01:26;98448.81;;;7.69;85.96
46392;BME280;32098;49.448;7.904;2023-03-20T04:03:57;98449.66;;;7.69;85.88
46392;BME280;32098;49.448;7.904;2023-03-20T04:06:26;98453.72;;;7.72;86.05
46392;BME280;32098;49.448;7.904;2023-03-20T04:08:53;98456.38;;;7.78;86.04
46392;BME280;32098;49.448;7.904;2023-03-20T04:11:23;98448.81;;;7.75;85.31
46392;BME280;32098;49.448;7.904;2023-03-20T04:13:51;98445.97;;;7.77;86.21
46392;BME280;32098;49.448;7.904;2023-03-20T04:16:20;98444.53;;;7.74;85.84
46392;BME280;32098;49.448;7.904;2023-03-20T04:18:49;98435.72;;;7.67;86.03
46392;BME280;32098;49.448;7.904;2023-03-20T04:21:16;98444.13;;;7.71;86.01
46392;BME280;32098;49.448;7.904;2023-03-20T04:23:44;98424.69;;;7.64;86.52
46392;BME280;32098;49.448;7.904;2023-03-20T04:26:11;98443.72;;;7.74;86.16
46392;BME280;32098;49.448;7.904;2023-03-20T04:28:39;98441.66;;;7.69;86.10
46392;BME280;32098;49.448;7.904;2023-03-20T04:31:24;98451.25;;;7.70;86.37
46392;BME280;32098;49.448;7.904;2023-03-20T04:34:03;98449.44;;;7.71;86.18
46392;BME280;32098;49.448;7.904;2023-03-20T04:36:42;98451.25;;;7.70;86.36
46392;BME280;32098;49.448;7.904;2023-03-20T04:39:11;98457.81;;;7.74;86.13
46392;BME280;32098;49.448;7.904;2023-03-20T04:41:38;98453.31;;;7.68;86.03
46392;BME280;32098;49.448;7.904;2023-03-20T04:44:05;98434.50;;;7.63;86.08
46392;BME280;32098;49.448;7.904;2023-03-20T04:46:33;98455.34;;;7.73;86.51
46392;BME280;32098;49.448;7.904;2023-03-20T04:49:02;98442.66;;;7.75;86.19
46392;BME280;32098;49.448;7.904;2023-03-20T04:51:29;98443.50;;;7.75;86.24
46392;BME280;32098;49.448;7.904;2023-03-20T04:53:56;98448.19;;;7.73;86.06
46392;BME280;32098;49.448;7.904;2023-03-20T04:56:23;98455.56;;;7.71;85.99
46392;BME280;32098;49.448;7.904;2023-03-20T04:58:51;98458.63;;;7.75;86.47
46392;BME280;32098;49.448;7.904;2023-03-20T05:01:20;98455.97;;;7.75;86.15
46392;BME280;32098;49.448;7.904;2023-03-20T05:03:46;98451.06;;;7.78;86.13
46392;BME280;32098;49.448;7.904;2023-03-20T05:06:13;98457.38;;;7.77;86.24
46392;BME280;32098;49.448;7.904;2023-03-20T05:08:42;98448.41;;;7.78;86.50
46392;BME280;32098;49.448;7.904;2023-03-20T05:11:09;98468.44;;;7.81;85.94
46392;BME280;32098;49.448;7.904;2023-03-20T05:14:00;98466.78;;;7.80;86.00
46392;BME280;32098;49.448;7.904;2023-03-20T05:16:47;98459.84;;;7.72;86.20
46392;BME280;32098;49.448;7.904;2023-03-20T05:19:44;98461.09;;;7.76;86.48
46392;BME280;32098;49.448;7.904;2023-03-20T05:22:16;98461.69;;;7.78;85.94
46392;BME280;32098;49.448;7.904;2023-03-20T05:25:04;98455.16;;;7.81;86.02
46392;BME280;32098;49.448;7.904;2023-03-20T05:27:56;98457.38;;;7.77;86.55
46392;BME280;32098;49.448;7.904;2023-03-20T05:30:29;98457.38;;;7.77;86.28
46392;BME280;32098;49.448;7.904;2023-03-20T05:33:14;98459.44;;;7.75;86.69
46392;BME280;32098;49.448;7.904;2023-03-20T05:35:52;98461.09;;;7.76;86.57
46392;BME280;32098;49.448;7.904;2023-03-20T05:38:32;98461.09;;;7.76;86.22
46392;BME280;32098;49.448;7.904;2023-03-20T05:41:22;98458.44;;;7.76;86.75
46392;BME280;32098;49.448;7.904;2023-03-20T05:44:06;98461.50;;;7.73;86.49
46392;BME280;32098;49.448;7.904;2023-03-20T05:46:44;98461.09;;;7.76;86.73
46392;BME280;32098;49.448;7.904;2023-03-20T05:49:20;98470.06;;;7.75;86.57
46392;BME280;32098;49.448;7.904;2023-03-20T05:52:14;98476.22;;;7.76;86.61
46392;BME280;32098;49.448;7.904;2023-03-20T05:55:13;98481.94;;;7.79;86.91
46392;BME280;32098;49.448;7.904;2023-03-20T05:57:51;98486.22;;;7.80;86.69
46392;BME280;32098;49.448;7.904;2023-03-20T06:00:37;98486.44;;;7.79;86.87
46392;BME280;32098;49.448;7.904;2023-03-20T06:03:22;98450.25;;;7.58;86.48
46392;BME280;32098;49.448;7.904;2023-03-20T06:06:06;98494.41;;;7.79;87.33
46392;BME280;32098;49.448;7.904;2023-03-20T06:08:33;98497.91;;;7.79;86.88
46392;BME280;32098;49.448;7.904;2023-03-20T06:11:02;98500.97;;;7.76;87.37
46392;BME280;32098;49.448;7.904;2023-03-20T06:13:31;98506.88;;;7.78;87.03
46392;BME280;32098;49.448;7.904;2023-03-20T06:15:59;98510.56;;;7.77;87.33
46392;BME280;32098;49.448;7.904;2023-03-20T06:18:27;98503.22;;;7.79;87.26
46392;BME280;32098;49.448;7.904;2023-03-20T06:20:56;98502.81;;;7.76;87.12
46392;BME280;32098;49.448;7.904;2023-03-20T06:23:24;98515.47;;;7.80;87.07
46392;BME280;32098;49.448;7.904;2023-03-20T06:25:51;98520.41;;;7.77;86.96
46392;BME280;32098;49.448;7.904;2023-03-20T06:28:19;98523.25;;;7.75;87.12
46392;BME280;32098;49.448;7.904;2023-03-20T06:30:53;98512.22;;;7.78;86.79
46392;BME280;32098;49.448;7.904;2023-03-20T06:33:22;98513.22;;;7.77;86.74
46392;BME280;32098;49.448;7.904;2023-03-20T06:36:01;98521.81;;;7.86;86.73
46392;BME280;32098;49.448;7.904;2023-03-20T06:38:30;98504.03;;;7.73;87.24
46392;BME280;32098;49.448;7.904;2023-03-20T06:41:03;98508.09;;;7.82;87.08
46392;BME280;32098;49.448;7.904;2023-03-20T06:43:30;98510.16;;;7.80;87.26
46392;BME280;32098;49.448;7.904;2023-03-20T06:45:58;98512.81;;;7.80;87.27
46392;BME280;32098;49.448;7.904;2023-03-20T06:48:27;98512.44;;;7.77;87.66
46392;BME280;32098;49.448;7.904;2023-03-20T06:50:54;98511.00;;;7.74;87.68
46392;BME280;32098;49.448;7.904;2023-03-20T06:53:25;98512.63;;;7.75;87.47
46392;BME280;32098;49.448;7.904;2023-03-20T06:56:18;98515.09;;;7.77;87.42
46392;BME280;32098;49.448;7.904;2023-03-20T06:58:44;98511.19;;;7.79;87.40
46392;BME280;32098;49.448;7.904;2023-03-20T07:01:13;98513.03;;;7.79;87.61
46392;BME280;32098;49.448;7.904;2023-03-20T07:03:42;98499.31;;;7.75;87.20
46392;BME280;32098;49.448;7.904;2023-03-20T07:06:09;98510.16;;;7.80;88.04
46392;BME280;32098;49.448;7.904;2023-03-20T07:08:37;98507.72;;;7.79;87.68
46392;BME280;32098;49.448;7.904;2023-03-20T07:11:05;98507.50;;;7.87;87.27
46392;BME280;32098;49.448;7.904;2023-03-20T07:13:32;98506.88;;;7.85;87.50
46392;BME280;32098;49.448;7.904;2023-03-20T07:16:07;98501.16;;;7.88;87.23
46392;BME280;32098;49.448;7.904;2023-03-20T07:18:38;98503.22;;;7.86;87.36
46392;BME280;32098;49.448;7.904;2023-03-20T07:21:06;98504.84;;;7.87;87.20
46392;BME280;32098;49.448;7.904;2023-03-20T07:23:33;98518.56;;;7.84;87.30
46392;BME280;32098;49.448;7.904;2023-03-20T07:26:01;98507.28;;;7.88;87.08
46392;BME280;32098;49.448;7.904;2023-03-20T07:28:29;98521.22;;;7.84;87.49
46392;BME280;32098;49.448;7.904;2023-03-20T07:31:18;98525.31;;;7.86;86.93
46392;BME280;32098;49.448;7.904;2023-03-20T07:33:45;98528.38;;;7.83;87.45
46392;BME280;32098;49.448;7.904;2023-03-20T07:36:12;98526.91;;;7.87;87.44
46392;BME280;32098;49.448;7.904;2023-03-20T07:38:39;98531.84;;;7.90;87.06
46392;BME280;32098;49.448;7.904;2023-03-20T07:41:09;98538.19;;;7.89;87.17
46392;BME280;32098;49.448;7.904;2023-03-20T07:43:38;98534.91;;;7.94;86.84
46392;BME280;32098;49.448;7.904;2023-03-20T07:46:34;98537.69;;;8.58;96.37
46392;BME280;32098;49.448;7.904;2023-03-20T07:49:00;98542.75;;;8.92;94.10
46392;BME280;32098;49.448;7.904;2023-03-20T07:51:27;98540.94;;;8.73;84.75
46392;BME280;32098;49.448;7.904;2023-03-20T07:53:55;98542.59;;;8.61;83.15
46392;BME280;32098;49.448;7.904;2023-03-20T07:56:21;98540.56;;;8.50;83.36
46392;BME280;32098;49.448;7.904;2023-03-20T07:58:48;98542.84;;;8.46;83.87
46392;BME280;32098;49.448;7.904;2023-03-20T08:01:14;98537.13;;;8.30;84.44
46392;BME280;32098;49.448;7.904;2023-03-20T08:03:41;98550.41;;;8.30;84.80
46392;BME280;32098;49.448;7.904;2023-03-20T08:06:08;98552.28;;;8.29;85.29
46392;BME280;32098;49.448;7.904;2023-03-20T08:08:35;98547.16;;;8.21;85.48
46392;BME280;32098;49.448;7.904;2023-03-20T08:11:01;98550.66;;;8.22;85.56
46392;BME280;32098;49.448;7.904;2023-03-20T08:13:28;98556.78;;;8.16;85.66
46392;BME280;32098;49.448;7.904;2023-03-20T08:15:54;98547.78;;;8.10;85.99
46392;BME280;32098;49.448;7.904;2023-03-20T08:18:21;98561.31;;;8.09;86.63
46392;BME280;32098;49.448;7.904;2023-03-20T08:20:47;98561.91;;;8.11;86.57
46392;BME280;32098;49.448;7.904;2023-03-20T08:23:16;98552.50;;;8.15;86.74
46392;BME280;32098;49.448;7.904;2023-03-20T08:25:49;98565.59;;;8.10;86.44
46392;BME280;32098;49.448;7.904;2023-03-20T08:28:17;98565.81;;;8.08;86.47
46392;BME280;32098;49.448;7.904;2023-03-20T08:30:43;98569.47;;;8.14;86.13
46392;BME280;32098;49.448;7.904;2023-03-20T08:33:10;98568.06;;;8.05;85.69
46392;BME280;32098;49.448;7.904;2023-03-20T08:35:37;98568.66;;;8.07;85.30
46392;BME280;32098;49.448;7.904;2023-03-20T08:38:04;98572.94;;;8.08;85.46
46392;BME280;32098;49.448;7.904;2023-03-20T08:40:31;98574.59;;;8.09;85.26
46392;BME280;32098;49.448;7.904;2023-03-20T08:42:58;98580.94;;;8.14;85.43
46392;BME280;32098;49.448;7.904;2023-03-20T08:45:24;98584.84;;;8.12;85.39
46392;BME280;32098;49.448;7.904;2023-03-20T08:47:51;98585.84;;;8.11;85.02
46392;BME280;32098;49.448;7.904;2023-03-20T08:50:18;98582.59;;;8.09;84.69
46392;BME280;32098;49.448;7.904;2023-03-20T08:52:45;98586.69;;;8.11;84.62
46392;BME280;32098;49.448;7.904;2023-03-20T08:55:13;98580.72;;;8.16;84.64
46392;BME280;32098;49.448;7.904;2023-03-20T08:57:40;98595.88;;;8.15;84.29
46392;BME280;32098;49.448;7.904;2023-03-20T09:00:09;98581.53;;;8.23;83.85
46392;BME280;32098;49.448;7.904;2023-03-20T09:02:36;98592.00;;;8.24;84.01
46392;BME280;32098;49.448;7.904;2023-03-20T09:05:02;98586.03;;;8.22;84.44
46392;BME280;32098;49.448;7.904;2023-03-20T09:07:29;98586.88;;;8.23;83.10
46392;BME280;32098;49.448;7.904;2023-03-20T09:09:55;98595.03;;;8.28;82.78
46392;BME280;32098;49.448;7.904;2023-03-20T09:12:22;98600.97;;;8.30;81.63
46392;BME280;32098;49.448;7.904;2023-03-20T09:14:48;98604.66;;;8.35;81.32
46392;BME280;32098;49.448;7.904;2023-03-20T09:17:15;98594.81;;;8.42;81.05
46392;BME280;32098;49.448;7.904;2023-03-20T09:19:42;98586.63;;;8.50;80.75
46392;BME280;32098;49.448;7.904;2023-03-20T09:22:12;98591.97;;;8.57;79.27
46392;BME280;32098;49.448;7.904;2023-03-20T09:24:39;98597.69;;;8.74;78.49
46392;BME280;32098;49.448;7.904;2023-03-20T09:27:06;98602.06;;;9.12;77.67
46392;BME280;32098;49.448;7.904;2023-03-20T09:29:32;98607.72;;;9.36;75.09
46392;BME280;32098;49.448;7.904;2023-03-20T09:31:59;98604.81;;;9.44;73.16
46392;BME280;32098;49.448;7.904;2023-03-20T09:34:25;98612.16;;;9.55;72.73
46392;BME280;32098;49.448;7.904;2023-03-20T09:36:52;98606.00;;;9.54;71.19
46392;BME280;32098;49.448;7.904;2023-03-20T09:39:18;98606.81;;;9.48;71.59
46392;BME280;32098;49.448;7.904;2023-03-20T09:41:47;98608.19;;;9.64;72.14
46392;BME280;32098;49.448;7.904;2023-03-20T09:50:22;98607.84;;;10.16;70.33
46392;BME280;32098;49.448;7.904;2023-03-20T09:52:58;98608.28;;;10.38;68.83
46392;BME280;32098;49.448;7.904;2023-03-20T09:55:37;98606.31;;;10.52;68.68
46392;BME280;32098;49.448;7.904;2023-03-20T09:58:14;98610.69;;;10.46;68.89
46392;BME280;32098;49.448;7.904;2023-03-20T10:00:44;98604.03;;;10.55;65.55
46392;BME280;32098;49.448;7.904;2023-03-20T10:03:19;98607.22;;;10.64;64.15
46392;BME280;32098;49.448;7.904;2023-03-20T10:05:52;98605.81;;;10.61;64.04
46392;BME280;32098;49.448;7.904;2023-03-20T10:08:22;98601.38;;;10.55;61.73
46392;BME280;32098;49.448;7.904;2023-03-20T10:10:59;98601.41;;;10.48;60.87
46392;BME280;32098;49.448;7.904;2023-03-20T10:19:29;98596.22;;;11.33;59.38
46392;BME280;32098;49.448;7.904;2023-03-20T10:25:33;98598.19;;;11.97;57.03
46392;BME280;32098;49.448;7.904;2023-03-20T10:28:03;98596.28;;;11.86;55.09
46392;BME280;32098;49.448;7.904;2023-03-20T10:33:25;98576.75;;;12.50;54.80
46392;BME280;32098;49.448;7.904;2023-03-20T10:36:19;98585.69;;;12.32;54.50
46392;BME280;32098;49.448;7.904;2023-03-20T10:39:05;98588.25;;;12.15;54.26
46392;BME280;32098;49.448;7.904;2023-03-20T10:41:37;98581.56;;;11.95;54.48
46392;BME280;32098;49.448;7.904;2023-03-20T10:44:19;98586.31;;;11.93;54.63
46392;BME280;32098;49.448;7.904;2023-03-20T10:46:50;98580.72;;;11.83;54.34
46392;BME280;32098;49.448;7.904;2023-03-20T10:49:38;98571.44;;;12.08;54.80
46392;BME280;32098;49.448;7.904;2023-03-20T10:52:12;98568.91;;;12.25;54.64
46392;BME280;32098;49.448;7.904;2023-03-20T10:54:43;98573.59;;;12.64;54.44
46392;BME280;32098;49.448;7.904;2023-03-20T10:57:21;98575.91;;;12.95;54.13
46392;BME280;32098;49.448;7.904;2023-03-20T10:59:50;98568.75;;;13.13;52.76
46392;BME280;32098;49.448;7.904;2023-03-20T11:02:19;98578.16;;;13.27;51.94
46392;BME280;32098;49.448;7.904;2023-03-20T11:04:46;98578.50;;;13.30;52.08
46392;BME280;32098;49.448;7.904;2023-03-20T11:10:07;98575.72;;;13.14;52.18
46392;BME280;32098;49.448;7.904;2023-03-20T11:15:20;98573.59;;;12.87;51.64
46392;BME280;32098;49.448;7.904;2023-03-20T11:17:52;98568.50;;;12.63;50.69
46392;BME280;32098;49.448;7.904;2023-03-20T11:20:19;98559.63;;;12.62;51.52
46392;BME280;32098;49.448;7.904;2023-03-20T11:22:47;98568.94;;;12.71;51.70
46392;BME280;32098;49.448;7.904;2023-03-20T11:25:36;98561.72;;;12.72;50.66
46392;BME280;32098;49.448;7.904;2023-03-20T11:29:00;98552.31;;;12.58;50.33
46392;BME280;32098;49.448;7.904;2023-03-20T11:31:38;98555.53;;;12.71;50.62
46392;BME280;32098;49.448;7.904;2023-03-20T11:36:33;98556.00;;;12.80;50.72
46392;BME280;32098;49.448;7.904;2023-03-20T11:39:15;98554.25;;;12.85;50.70
46392;BME280;32098;49.448;7.904;2023-03-20T11:44:30;98560.91;;;12.60;48.96
46392;BME280;32098;49.448;7.904;2023-03-20T11:47:05;98544.25;;;12.46;49.06
46392;BME280;32098;49.448;7.904;2023-03-20T11:49:54;98551.69;;;12.44;49.97
46392;BME280;32098;49.448;7.904;2023-03-20T11:52:47;98551.69;;;12.44;49.86
46392;BME280;32098;49.448;7.904;2023-03-20T11:55:31;98545.50;;;12.43;48.43
46392;BME280;32098;49.448;7.904;2023-03-20T11:58:00;98546.94;;;12.46;48.25
46392;BME280;32098;49.448;7.904;2023-03-20T12:00:38;98543.78;;;12.37;47.88
46392;BME280;32098;49.448;7.904;2023-03-20T12:06:00;98537.13;;;12.40;48.84
46392;BME280;32098;49.448;7.904;2023-03-20T12:08:27;98540.97;;;12.44;48.04
46392;BME280;32098;49.448;7.904;2023-03-20T12:11:00;98537.47;;;12.43;46.97
46392;BME280;32098;49.448;7.904;2023-03-20T12:13:33;98542.50;;;12.52;46.49
46392;BME280;32098;49.448;7.904;2023-03-20T12:16:04;98537.50;;;12.55;46.79
46392;BME280;32098;49.448;7.904;2023-03-20T12:18:37;98536.09;;;12.64;47.58
46392;BME280;32098;49.448;7.904;2023-03-20T12:21:08;98528.28;;;12.63;45.26
46392;BME280;32098;49.448;7.904;2023-03-20T12:23:41;98526.78;;;12.55;44.48
46392;BME280;32098;49.448;7.904;2023-03-20T12:26:31;98519.75;;;12.31;43.80
46392;BME280;32098;49.448;7.904;2023-03-20T12:29:25;98518.50;;;12.57;44.25
46392;BME280;32098;49.448;7.904;2023-03-20T12:31:57;98521.16;;;12.68;45.11
46392;BME280;32098;49.448;7.904;2023-03-20T12:34:43;98519.66;;;12.61;42.96
46392;BME280;32098;49.448;7.904;2023-03-20T12:37:10;98512.31;;;12.56;43.08
46392;BME280;32098;49.448;7.904;2023-03-20T12:39:51;98509.50;;;12.74;43.63
46392;BME280;32098;49.448;7.904;2023-03-20T12:42:25;98508.47;;;12.75;43.14
46392;BME280;32098;49.448;7.904;2023-03-20T12:45:00;98501.59;;;12.56;43.25
46392;BME280;32098;49.448;7.904;2023-03-20T12:50:20;98514.44;;;12.54;44.27
46392;BME280;32098;49.448;7.904;2023-03-20T12:55:38;98504.88;;;12.58;44.35
46392;BME280;32098;49.448;7.904;2023-03-20T12:58:21;98506.28;;;12.49;44.55
46392;BME280;32098;49.448;7.904;2023-03-20T13:01:17;98495.19;;;12.34;44.37
46392;BME280;32098;49.448;7.904;2023-03-20T13:09:17;98492.28;;;12.24;45.76
46392;BME280;32098;49.448;7.904;2023-03-20T13:12:17;98487.16;;;12.34;45.88
46392;BME280;32098;49.448;7.904;2023-03-20T13:17:32;98491.59;;;12.40;44.94
46392;BME280;32098;49.448;7.904;2023-03-20T13:26:07;98478.09;;;12.47;45.78
46392;BME280;32098;49.448;7.904;2023-03-20T13:28:56;98477.88;;;12.48;46.44
46392;BME280;32098;49.448;7.904;2023-03-20T13:31:51;98476.34;;;12.40;45.89
46392;BME280;32098;49.448;7.904;2023-03-20T13:34:27;98461.91;;;12.30;45.65
46392;BME280;32098;49.448;7.904;2023-03-20T13:37:18;98475.53;;;12.17;45.83
46392;BME280;32098;49.448;7.904;2023-03-20T13:40:03;98477.19;;;12.18;45.32
46392;BME280;32098;49.448;7.904;2023-03-20T13:42:37;98476.47;;;12.11;45.58
46392;BME280;32098;49.448;7.904;2023-03-20T13:45:29;98478.09;;;12.12;45.15
46392;BME280;32098;49.448;7.904;2023-03-20T13:48:02;98477.53;;;12.10;45.99
46392;BME280;32098;49.448;7.904;2023-03-20T13:50:40;98469.25;;;12.11;44.66
46392;BME280;32098;49.448;7.904;2023-03-20T13:53:22;98469.13;;;12.06;44.44
46392;BME280;32098;49.448;7.904;2023-03-20T13:55:52;98463.78;;;11.95;44.40
46392;BME280;32098;49.448;7.904;2023-03-20T14:01:24;98457.47;;;12.01;44.52
46392;BME280;32098;49.448;7.904;2023-03-20T14:03:58;98448.88;;;11.87;43.93
46392;BME280;32098;49.448;7.904;2023-03-20T14:08:53;98450.38;;;11.71;44.22
46392;BME280;32098;49.448;7.904;2023-03-20T14:13:50;98450.03;;;11.91;43.82
46392;BME280;32098;49.448;7.904;2023-03-20T14:16:19;98439.47;;;11.85;43.84
46392;BME280;32098;49.448;7.904;2023-03-20T14:18:48;98442.13;;;11.73;43.36
46392;BME280;32098;49.448;7.904;2023-03-20T14:21:19;98452.81;;;11.61;43.97
46392;BME280;32098;49.448;7.904;2023-03-20T14:24:04;98449.56;;;11.71;44.16
46392;BME280;32098;49.448;7.904;2023-03-20T14:26:35;98446.91;;;11.83;44.51
46392;BME280;32098;49.448;7.904;2023-03-20T14:31:36;98448.97;;;11.81;44.54
46392;BME280;32098;49.448;7.904;2023-03-20T14:36:59;98441.19;;;11.79;44.33
46392;BME280;32098;49.448;7.904;2023-03-20T14:39:49;98450.50;;;11.65;44.84
46392;BME280;32098;49.448;7.904;2023-03-20T14:43:00;98452.94;;;11.66;44.47
46392;BME280;32098;49.448;7.904;2023-03-20T14:48:13;98452.44;;;11.46;45.45
46392;BME280;32098;49.448;7.904;2023-03-20T14:51:07;98454.53;;;11.44;45.38
46392;BME280;32098;49.448;7.904;2023-03-20T14:53:39;98440.56;;;11.42;44.83
46392;BME280;32098;49.448;7.904;2023-03-20T14:56:09;98446.81;;;11.36;44.64
46392;BME280;32098;49.448;7.904;2023-03-20T14:58:55;98452.56;;;11.22;44.67
46392;BME280;32098;49.448;7.904;2023-03-20T15:01:25;98442.69;;;11.22;45.15
46392;BME280;32098;49.448;7.904;2023-03-20T15:03:56;98445.94;;;11.24;44.88
46392;BME280;32098;49.448;7.904;2023-03-20T15:06:26;98436.41;;;11.17;45.17
46392;BME280;32098;49.448;7.904;2023-03-20T15:08:57;98438.38;;;11.21;45.63
46392;BME280;32098;49.448;7.904;2023-03-20T15:11:26;98438.31;;;11.28;45.46
46392;BME280;32098;49.448;7.904;2023-03-20T15:13:53;98431.88;;;11.17;45.45